sensor_id;sensor_type;location;lat;lon;timestamp;P1;durP1;ratioP1;P2;durP2;ratioP2
49444;SDS011;35323;43.080;-81.378;2023-08-17T00:00:53;21.92;;;17.10;;
49444;SDS011;35323;43.080;-81.378;2023-08-17T00:03:20;19.77;;;15.13;;
49444;SDS011;35323;43.080;-81.378;2023-08-17T00:05:48;24.20;;;17.73;;
49444;SDS011;35323;43.080;-81.378;2023-08-17T00:08:16;21.27;;;16.40;;
49444;SDS011;35323;43.080;-81.378;2023-08-17T00:10:44;22.83;;;17.25;;
49444;SDS011;35323;43.080;-81.378;2023-08-17T00:13:12;21.95;;;16.95;;
49444;SDS011;35323;43.080;-81.378;2023-08-17T00:15:46;22.08;;;17.95;;
49444;SDS011;35323;43.080;-81.378;2023-08-17T00:18:36;20.58;;;16.55;;
49444;SDS011;35323;43.080;-81.378;2023-08-17T00:21:17;19.73;;;16.05;;
49444;SDS011;35323;43.080;-81.378;2023-08-17T00:23:47;20.35;;;18.15;;
49444;SDS011;35323;43.080;-81.378;2023-08-17T00:26:15;19.27;;;17.08;;
49444;SDS011;35323;43.080;-81.378;2023-08-17T00:28:46;21.75;;;18.17;;
49444;SDS011;35323;43.080;-81.378;2023-08-17T00:31:14;21.63;;;16.65;;
49444;SDS011;35323;43.080;-81.378;2023-08-17T00:36:45;25.52;;;21.30;;
49444;SDS011;35323;43.080;-81.378;2023-08-17T00:39:49;23.25;;;17.05;;
49444;SDS011;35323;43.080;-81.378;2023-08-17T00:42:40;22.75;;;17.63;;
49444;SDS011;35323;43.080;-81.378;2023-08-17T00:45:08;20.83;;;15.90;;
49444;SDS011;35323;43.080;-81.378;2023-08-17T00:47:35;23.73;;;18.35;;
49444;SDS011;35323;43.080;-81.378;2023-08-17T00:50:03;23.00;;;18.50;;
49444;SDS011;35323;43.080;-81.378;2023-08-17T00:52:31;23.15;;;17.17;;
49444;SDS011;35323;43.080;-81.378;2023-08-17T00:55:05;21.98;;;18.13;;
49444;SDS011;35323;43.080;-81.378;2023-08-17T00:57:46;20.20;;;16.42;;
49444;SDS011;35323;43.080;-81.378;2023-08-17T01:00:14;25.10;;;19.30;;
49444;SDS011;35323;43.080;-81.378;2023-08-17T01:02:45;21.40;;;17.60;;
49444;SDS011;35323;43.080;-81.378;2023-08-17T01:05:13;20.55;;;17.65;;
49444;SDS011;35323;43.080;-81.378;2023-08-17T01:07:42;21.60;;;19.27;;
49444;SDS011;35323;43.080;-81.378;2023-08-17T01:10:22;20.70;;;17.92;;
49444;SDS011;35323;43.080;-81.378;2023-08-17T01:16:21;19.98;;;17.88;;
49444;SDS011;35323;43.080;-81.378;2023-08-17T01:18:53;19.60;;;17.48;;
49444;SDS011;35323;43.080;-81.378;2023-08-17T01:21:24;23.52;;;16.98;;
49444;SDS011;35323;43.080;-81.378;2023-08-17T01:24:10;18.90;;;16.25;;
49444;SDS011;35323;43.080;-81.378;2023-08-17T01:26:38;22.70;;;19.90;;
49444;SDS011;35323;43.080;-81.378;2023-08-17T01:29:21;26.38;;;17.67;;
49444;SDS011;35323;43.080;-81.378;2023-08-17T01:35:27;20.40;;;18.20;;
49444;SDS011;35323;43.080;-81.378;2023-08-17T01:37:58;27.40;;;18.92;;
49444;SDS011;35323;43.080;-81.378;2023-08-17T01:40:27;21.80;;;17.35;;
49444;SDS011;35323;43.080;-81.378;2023-08-17T01:43:11;23.95;;;18.73;;
49444;SDS011;35323;43.080;-81.378;2023-08-17T01:45:39;21.95;;;19.08;;
49444;SDS011;35323;43.080;-81.378;2023-08-17T01:48:07;20.48;;;18.20;;
49444;SDS011;35323;43.080;-81.378;2023-08-17T01:50:34;24.67;;;19.23;;
49444;SDS011;35323;43.080;-81.378;2023-08-17T01:53:02;23.15;;;19.75;;
49444;SDS011;35323;43.080;-81.378;2023-08-17T01:55:30;23.33;;;19.05;;
49444;SDS011;35323;43.080;-81.378;2023-08-17T01:57:58;21.35;;;18.92;;
49444;SDS011;35323;43.080;-81.378;2023-08-17T02:00:25;20.15;;;18.05;;
49444;SDS011;35323;43.080;-81.378;2023-08-17T02:02:53;23.65;;;20.08;;
49444;SDS011;35323;43.080;-81.378;2023-08-17T02:05:21;26.15;;;19.38;;
49444;SDS011;35323;43.080;-81.378;2023-08-17T02:07:49;22.08;;;19.67;;
49444;SDS011;35323;43.080;-81.378;2023-08-17T02:10:16;21.17;;;19.05;;
49444;SDS011;35323;43.080;-81.378;2023-08-17T02:12:44;27.20;;;19.77;;
49444;SDS011;35323;43.080;-81.378;2023-08-17T02:15:12;22.85;;;18.55;;
49444;SDS011;35323;43.080;-81.378;2023-08-17T02:17:45;24.20;;;18.98;;
49444;SDS011;35323;43.080;-81.378;2023-08-17T02:20:25;21.48;;;16.40;;
49444;SDS011;35323;43.080;-81.378;2023-08-17T02:22:53;22.67;;;18.38;;
49444;SDS011;35323;43.080;-81.378;2023-08-17T02:25:25;22.85;;;17.13;;
49444;SDS011;35323;43.080;-81.378;2023-08-17T02:28:05;22.30;;;17.55;;
49444;SDS011;35323;43.080;-81.378;2023-08-17T02:30:38;22.38;;;18.48;;
49444;SDS011;35323;43.080;-81.378;2023-08-17T02:33:08;20.92;;;17.55;;
49444;SDS011;35323;43.080;-81.378;2023-08-17T02:35:36;22.33;;;17.83;;
49444;SDS011;35323;43.080;-81.378;2023-08-17T02:38:04;21.05;;;18.20;;
49444;SDS011;35323;43.080;-81.378;2023-08-17T02:40:33;26.08;;;20.10;;
49444;SDS011;35323;43.080;-81.378;2023-08-17T02:43:01;22.95;;;17.67;;
49444;SDS011;35323;43.080;-81.378;2023-08-17T02:45:29;21.05;;;18.60;;
49444;SDS011;35323;43.080;-81.378;2023-08-17T02:47:57;24.38;;;19.95;;
49444;SDS011;35323;43.080;-81.378;2023-08-17T02:50:25;25.55;;;17.05;;
49444;SDS011;35323;43.080;-81.378;2023-08-17T02:52:57;21.05;;;18.05;;
49444;SDS011;35323;43.080;-81.378;2023-08-17T02:55:26;23.80;;;19.15;;
49444;SDS011;35323;43.080;-81.378;2023-08-17T02:58:01;23.80;;;19.88;;
49444;SDS011;35323;43.080;-81.378;2023-08-17T03:00:31;22.55;;;17.58;;
49444;SDS011;35323;43.080;-81.378;2023-08-17T03:02:58;25.73;;;18.10;;
49444;SDS011;35323;43.080;-81.378;2023-08-17T03:05:26;24.15;;;17.17;;
49444;SDS011;35323;43.080;-81.378;2023-08-17T03:07:54;19.23;;;16.95;;
49444;SDS011;35323;43.080;-81.378;2023-08-17T03:10:22;26.08;;;17.17;;
49444;SDS011;35323;43.080;-81.378;2023-08-17T03:12:52;23.13;;;16.85;;
49444;SDS011;35323;43.080;-81.378;2023-08-17T03:15:22;21.80;;;15.70;;
49444;SDS011;35323;43.080;-81.378;2023-08-17T03:17:50;20.35;;;17.10;;
49444;SDS011;35323;43.080;-81.378;2023-08-17T03:20:18;21.98;;;15.85;;
49444;SDS011;35323;43.080;-81.378;2023-08-17T03:22:46;22.02;;;15.43;;
49444;SDS011;35323;43.080;-81.378;2023-08-17T03:25:13;18.75;;;16.08;;
49444;SDS011;35323;43.080;-81.378;2023-08-17T03:27:41;18.30;;;15.57;;
49444;SDS011;35323;43.080;-81.378;2023-08-17T03:30:20;19.08;;;14.93;;
49444;SDS011;35323;43.080;-81.378;2023-08-17T03:32:48;20.85;;;16.38;;
49444;SDS011;35323;43.080;-81.378;2023-08-17T03:35:25;18.08;;;14.30;;
49444;SDS011;35323;43.080;-81.378;2023-08-17T03:37:55;17.33;;;14.82;;
49444;SDS011;35323;43.080;-81.378;2023-08-17T03:40:22;19.27;;;17.00;;
49444;SDS011;35323;43.080;-81.378;2023-08-17T03:42:50;19.70;;;15.20;;
49444;SDS011;35323;43.080;-81.378;2023-08-17T03:45:17;18.85;;;15.50;;
49444;SDS011;35323;43.080;-81.378;2023-08-17T03:47:46;19.25;;;16.98;;
49444;SDS011;35323;43.080;-81.378;2023-08-17T03:50:14;23.33;;;17.52;;
49444;SDS011;35323;43.080;-81.378;2023-08-17T03:52:48;19.73;;;14.10;;
49444;SDS011;35323;43.080;-81.378;2023-08-17T03:55:24;21.02;;;17.40;;
49444;SDS011;35323;43.080;-81.378;2023-08-17T03:57:52;20.45;;;14.60;;
49444;SDS011;35323;43.080;-81.378;2023-08-17T04:00:20;16.85;;;14.23;;
49444;SDS011;35323;43.080;-81.378;2023-08-17T04:02:48;16.75;;;14.27;;
49444;SDS011;35323;43.080;-81.378;2023-08-17T04:05:31;20.30;;;15.70;;
49444;SDS011;35323;43.080;-81.378;2023-08-17T04:08:02;22.27;;;14.30;;
49444;SDS011;35323;43.080;-81.378;2023-08-17T04:10:57;18.27;;;15.88;;
49444;SDS011;35323;43.080;-81.378;2023-08-17T04:13:24;17.67;;;14.27;;
49444;SDS011;35323;43.080;-81.378;2023-08-17T04:15:54;15.05;;;13.40;;
49444;SDS011;35323;43.080;-81.378;2023-08-17T04:18:22;17.95;;;13.95;;
49444;SDS011;35323;43.080;-81.378;2023-08-17T04:20:50;16.95;;;14.88;;
49444;SDS011;35323;43.080;-81.378;2023-08-17T04:23:20;22.15;;;14.95;;
49444;SDS011;35323;43.080;-81.378;2023-08-17T04:25:51;17.95;;;13.65;;
49444;SDS011;35323;43.080;-81.378;2023-08-17T04:28:21;19.90;;;14.23;;
49444;SDS011;35323;43.080;-81.378;2023-08-17T04:31:04;16.40;;;13.02;;
49444;SDS011;35323;43.080;-81.378;2023-08-17T04:34:24;20.15;;;14.27;;
49444;SDS011;35323;43.080;-81.378;2023-08-17T04:36:52;19.85;;;15.65;;
49444;SDS011;35323;43.080;-81.378;2023-08-17T04:39:25;19.65;;;14.10;;
49444;SDS011;35323;43.080;-81.378;2023-08-17T04:42:23;16.33;;;12.52;;
49444;SDS011;35323;43.080;-81.378;2023-08-17T04:44:54;15.68;;;11.48;;
49444;SDS011;35323;43.080;-81.378;2023-08-17T04:47:28;18.33;;;11.85;;
49444;SDS011;35323;43.080;-81.378;2023-08-17T04:49:59;16.42;;;12.82;;
49444;SDS011;35323;43.080;-81.378;2023-08-17T04:52:27;15.52;;;13.88;;
49444;SDS011;35323;43.080;-81.378;2023-08-17T04:55:27;15.73;;;12.50;;
49444;SDS011;35323;43.080;-81.378;2023-08-17T04:57:54;18.55;;;13.85;;
49444;SDS011;35323;43.080;-81.378;2023-08-17T05:00:22;18.95;;;13.02;;
49444;SDS011;35323;43.080;-81.378;2023-08-17T05:05:31;16.58;;;12.00;;
49444;SDS011;35323;43.080;-81.378;2023-08-17T05:07:58;19.88;;;15.02;;
49444;SDS011;35323;43.080;-81.378;2023-08-17T05:10:34;20.83;;;15.50;;
49444;SDS011;35323;43.080;-81.378;2023-08-17T05:13:28;18.40;;;13.32;;
49444;SDS011;35323;43.080;-81.378;2023-08-17T05:16:12;16.85;;;14.73;;
49444;SDS011;35323;43.080;-81.378;2023-08-17T05:18:40;18.10;;;14.35;;
49444;SDS011;35323;43.080;-81.378;2023-08-17T05:21:27;18.80;;;12.43;;
49444;SDS011;35323;43.080;-81.378;2023-08-17T05:23:56;14.23;;;11.27;;
49444;SDS011;35323;43.080;-81.378;2023-08-17T05:26:24;18.67;;;15.05;;
49444;SDS011;35323;43.080;-81.378;2023-08-17T05:28:51;14.88;;;12.40;;
49444;SDS011;35323;43.080;-81.378;2023-08-17T05:31:19;13.95;;;11.35;;
49444;SDS011;35323;43.080;-81.378;2023-08-17T05:34:01;16.60;;;11.02;;
49444;SDS011;35323;43.080;-81.378;2023-08-17T05:36:48;15.32;;;12.45;;
49444;SDS011;35323;43.080;-81.378;2023-08-17T05:39:16;12.57;;;11.15;;
49444;SDS011;35323;43.080;-81.378;2023-08-17T05:41:44;15.77;;;10.43;;
49444;SDS011;35323;43.080;-81.378;2023-08-17T05:44:11;14.48;;;12.23;;
49444;SDS011;35323;43.080;-81.378;2023-08-17T05:46:40;15.93;;;12.07;;
49444;SDS011;35323;43.080;-81.378;2023-08-17T05:49:11;12.90;;;11.48;;
49444;SDS011;35323;43.080;-81.378;2023-08-17T05:51:40;18.55;;;12.35;;
49444;SDS011;35323;43.080;-81.378;2023-08-17T05:54:09;17.42;;;12.50;;
49444;SDS011;35323;43.080;-81.378;2023-08-17T05:56:37;14.82;;;11.55;;
49444;SDS011;35323;43.080;-81.378;2023-08-17T05:59:05;13.05;;;10.65;;
49444;SDS011;35323;43.080;-81.378;2023-08-17T06:01:32;15.00;;;12.15;;
49444;SDS011;35323;43.080;-81.378;2023-08-17T06:04:00;15.75;;;11.95;;
49444;SDS011;35323;43.080;-81.378;2023-08-17T06:06:29;11.80;;;8.93;;
49444;SDS011;35323;43.080;-81.378;2023-08-17T06:08:57;14.02;;;11.80;;
49444;SDS011;35323;43.080;-81.378;2023-08-17T06:11:25;17.92;;;10.80;;
49444;SDS011;35323;43.080;-81.378;2023-08-17T06:14:02;14.65;;;12.05;;
49444;SDS011;35323;43.080;-81.378;2023-08-17T06:16:30;17.45;;;11.20;;
49444;SDS011;35323;43.080;-81.378;2023-08-17T06:18:59;17.65;;;11.48;;
49444;SDS011;35323;43.080;-81.378;2023-08-17T06:21:41;12.45;;;10.25;;
49444;SDS011;35323;43.080;-81.378;2023-08-17T06:27:22;11.48;;;10.23;;
49444;SDS011;35323;43.080;-81.378;2023-08-17T06:30:09;12.05;;;9.60;;
49444;SDS011;35323;43.080;-81.378;2023-08-17T06:32:37;15.40;;;11.60;;
49444;SDS011;35323;43.080;-81.378;2023-08-17T06:35:15;15.40;;;12.23;;
49444;SDS011;35323;43.080;-81.378;2023-08-17T06:37:56;16.50;;;11.13;;
49444;SDS011;35323;43.080;-81.378;2023-08-17T06:40:25;11.15;;;8.98;;
49444;SDS011;35323;43.080;-81.378;2023-08-17T06:42:53;12.05;;;9.68;;
49444;SDS011;35323;43.080;-81.378;2023-08-17T06:45:21;12.23;;;9.88;;
49444;SDS011;35323;43.080;-81.378;2023-08-17T06:47:49;13.00;;;9.98;;
49444;SDS011;35323;43.080;-81.378;2023-08-17T06:50:17;11.43;;;9.82;;
49444;SDS011;35323;43.080;-81.378;2023-08-17T06:52:47;11.75;;;10.55;;
49444;SDS011;35323;43.080;-81.378;2023-08-17T06:58:08;14.02;;;10.60;;
49444;SDS011;35323;43.080;-81.378;2023-08-17T07:00:35;13.43;;;10.82;;
49444;SDS011;35323;43.080;-81.378;2023-08-17T07:03:03;12.70;;;10.43;;
49444;SDS011;35323;43.080;-81.378;2023-08-17T07:05:32;12.63;;;10.40;;
49444;SDS011;35323;43.080;-81.378;2023-08-17T07:08:00;11.43;;;10.30;;
49444;SDS011;35323;43.080;-81.378;2023-08-17T07:10:31;13.97;;;10.33;;
49444;SDS011;35323;43.080;-81.378;2023-08-17T07:12:59;12.10;;;10.93;;
49444;SDS011;35323;43.080;-81.378;2023-08-17T07:15:31;11.18;;;10.05;;
49444;SDS011;35323;43.080;-81.378;2023-08-17T07:17:58;14.27;;;10.88;;
49444;SDS011;35323;43.080;-81.378;2023-08-17T07:20:26;13.02;;;10.57;;
49444;SDS011;35323;43.080;-81.378;2023-08-17T07:22:56;11.32;;;9.70;;
49444;SDS011;35323;43.080;-81.378;2023-08-17T07:25:24;12.35;;;9.40;;
49444;SDS011;35323;43.080;-81.378;2023-08-17T07:28:27;10.65;;;8.68;;
49444;SDS011;35323;43.080;-81.378;2023-08-17T07:30:56;17.45;;;10.50;;
49444;SDS011;35323;43.080;-81.378;2023-08-17T07:33:55;12.60;;;10.43;;
49444;SDS011;35323;43.080;-81.378;2023-08-17T07:36:44;14.60;;;9.60;;
49444;SDS011;35323;43.080;-81.378;2023-08-17T07:39:12;16.33;;;11.05;;
49444;SDS011;35323;43.080;-81.378;2023-08-17T07:41:45;11.77;;;9.95;;
49444;SDS011;35323;43.080;-81.378;2023-08-17T07:44:15;14.07;;;11.35;;
49444;SDS011;35323;43.080;-81.378;2023-08-17T07:46:43;12.00;;;10.70;;
49444;SDS011;35323;43.080;-81.378;2023-08-17T07:49:11;14.95;;;11.48;;
49444;SDS011;35323;43.080;-81.378;2023-08-17T07:51:57;13.55;;;8.95;;
49444;SDS011;35323;43.080;-81.378;2023-08-17T07:54:25;13.43;;;10.75;;
49444;SDS011;35323;43.080;-81.378;2023-08-17T07:56:52;11.20;;;9.10;;
49444;SDS011;35323;43.080;-81.378;2023-08-17T07:59:29;10.85;;;8.57;;
49444;SDS011;35323;43.080;-81.378;2023-08-17T08:01:58;12.90;;;9.43;;
49444;SDS011;35323;43.080;-81.378;2023-08-17T08:04:26;12.45;;;9.20;;
49444;SDS011;35323;43.080;-81.378;2023-08-17T08:06:54;14.25;;;9.93;;
49444;SDS011;35323;43.080;-81.378;2023-08-17T08:09:22;13.15;;;10.45;;
49444;SDS011;35323;43.080;-81.378;2023-08-17T08:11:50;12.65;;;8.75;;
49444;SDS011;35323;43.080;-81.378;2023-08-17T08:14:17;11.82;;;8.75;;
49444;SDS011;35323;43.080;-81.378;2023-08-17T08:16:48;14.25;;;9.82;;
49444;SDS011;35323;43.080;-81.378;2023-08-17T08:19:29;11.07;;;9.73;;
49444;SDS011;35323;43.080;-81.378;2023-08-17T08:24:49;12.65;;;10.50;;
49444;SDS011;35323;43.080;-81.378;2023-08-17T08:27:17;11.90;;;8.88;;
49444;SDS011;35323;43.080;-81.378;2023-08-17T08:29:44;11.63;;;10.00;;
49444;SDS011;35323;43.080;-81.378;2023-08-17T08:32:16;11.40;;;10.13;;
49444;SDS011;35323;43.080;-81.378;2023-08-17T08:34:44;15.38;;;10.20;;
49444;SDS011;35323;43.080;-81.378;2023-08-17T08:37:17;14.10;;;10.32;;
49444;SDS011;35323;43.080;-81.378;2023-08-17T08:40:16;13.85;;;11.10;;
49444;SDS011;35323;43.080;-81.378;2023-08-17T08:42:44;13.63;;;10.98;;
49444;SDS011;35323;43.080;-81.378;2023-08-17T08:45:15;14.73;;;12.13;;
49444;SDS011;35323;43.080;-81.378;2023-08-17T08:47:42;14.95;;;11.05;;
49444;SDS011;35323;43.080;-81.378;2023-08-17T08:50:13;12.60;;;11.30;;
49444;SDS011;35323;43.080;-81.378;2023-08-17T08:52:44;16.88;;;9.85;;
49444;SDS011;35323;43.080;-81.378;2023-08-17T08:55:15;14.38;;;11.77;;
49444;SDS011;35323;43.080;-81.378;2023-08-17T08:57:45;16.33;;;10.55;;
49444;SDS011;35323;43.080;-81.378;2023-08-17T09:00:24;14.30;;;11.00;;
49444;SDS011;35323;43.080;-81.378;2023-08-17T09:02:53;12.52;;;10.13;;
49444;SDS011;35323;43.080;-81.378;2023-08-17T09:05:21;13.05;;;11.75;;
49444;SDS011;35323;43.080;-81.378;2023-08-17T09:07:52;13.82;;;11.02;;
49444;SDS011;35323;43.080;-81.378;2023-08-17T09:10:20;16.10;;;12.73;;
49444;SDS011;35323;43.080;-81.378;2023-08-17T09:12:48;13.82;;;10.65;;
49444;SDS011;35323;43.080;-81.378;2023-08-17T09:15:16;11.77;;;9.15;;
49444;SDS011;35323;43.080;-81.378;2023-08-17T09:17:44;17.15;;;12.60;;
49444;SDS011;35323;43.080;-81.378;2023-08-17T09:20:12;14.30;;;11.52;;
49444;SDS011;35323;43.080;-81.378;2023-08-17T09:22:41;16.27;;;11.27;;
49444;SDS011;35323;43.080;-81.378;2023-08-17T09:25:09;14.13;;;11.90;;
49444;SDS011;35323;43.080;-81.378;2023-08-17T09:27:38;13.55;;;11.27;;
49444;SDS011;35323;43.080;-81.378;2023-08-17T09:30:54;13.50;;;9.45;;
49444;SDS011;35323;43.080;-81.378;2023-08-17T09:33:26;17.55;;;13.27;;
49444;SDS011;35323;43.080;-81.378;2023-08-17T09:35:57;16.58;;;12.40;;
49444;SDS011;35323;43.080;-81.378;2023-08-17T09:38:26;12.48;;;10.57;;
49444;SDS011;35323;43.080;-81.378;2023-08-17T09:40:56;17.42;;;11.27;;
49444;SDS011;35323;43.080;-81.378;2023-08-17T09:46:44;17.05;;;12.30;;
49444;SDS011;35323;43.080;-81.378;2023-08-17T09:49:30;18.65;;;14.00;;
49444;SDS011;35323;43.080;-81.378;2023-08-17T09:52:02;13.35;;;11.20;;
49444;SDS011;35323;43.080;-81.378;2023-08-17T09:54:30;19.40;;;14.77;;
49444;SDS011;35323;43.080;-81.378;2023-08-17T09:56:58;14.55;;;11.98;;
49444;SDS011;35323;43.080;-81.378;2023-08-17T09:59:26;16.90;;;12.73;;
49444;SDS011;35323;43.080;-81.378;2023-08-17T10:01:56;16.42;;;11.40;;
49444;SDS011;35323;43.080;-81.378;2023-08-17T10:04:25;19.85;;;12.48;;
49444;SDS011;35323;43.080;-81.378;2023-08-17T10:06:59;16.60;;;13.63;;
49444;SDS011;35323;43.080;-81.378;2023-08-17T10:11:57;15.05;;;12.68;;
49444;SDS011;35323;43.080;-81.378;2023-08-17T10:14:33;16.58;;;14.13;;
49444;SDS011;35323;43.080;-81.378;2023-08-17T10:17:02;20.42;;;14.68;;
49444;SDS011;35323;43.080;-81.378;2023-08-17T10:22:30;18.80;;;13.30;;
49444;SDS011;35323;43.080;-81.378;2023-08-17T10:25:00;16.52;;;13.25;;
49444;SDS011;35323;43.080;-81.378;2023-08-17T10:27:28;17.00;;;14.07;;
49444;SDS011;35323;43.080;-81.378;2023-08-17T10:29:56;14.77;;;11.50;;
49444;SDS011;35323;43.080;-81.378;2023-08-17T10:32:24;16.10;;;13.05;;
49444;SDS011;35323;43.080;-81.378;2023-08-17T10:34:53;19.65;;;16.25;;
49444;SDS011;35323;43.080;-81.378;2023-08-17T10:37:21;17.40;;;11.77;;
49444;SDS011;35323;43.080;-81.378;2023-08-17T10:39:49;16.55;;;14.80;;
49444;SDS011;35323;43.080;-81.378;2023-08-17T10:42:29;18.02;;;14.57;;
49444;SDS011;35323;43.080;-81.378;2023-08-17T10:44:58;21.35;;;15.07;;
49444;SDS011;35323;43.080;-81.378;2023-08-17T10:47:27;20.60;;;13.63;;
49444;SDS011;35323;43.080;-81.378;2023-08-17T10:50:05;23.20;;;16.38;;
49444;SDS011;35323;43.080;-81.378;2023-08-17T10:55:07;17.52;;;13.35;;
49444;SDS011;35323;43.080;-81.378;2023-08-17T10:57:39;17.20;;;13.32;;
49444;SDS011;35323;43.080;-81.378;2023-08-17T11:00:07;17.38;;;15.45;;
49444;SDS011;35323;43.080;-81.378;2023-08-17T11:02:35;20.60;;;15.70;;
49444;SDS011;35323;43.080;-81.378;2023-08-17T11:05:05;17.67;;;12.18;;
49444;SDS011;35323;43.080;-81.378;2023-08-17T11:07:42;18.65;;;13.38;;
49444;SDS011;35323;43.080;-81.378;2023-08-17T11:12:46;16.25;;;13.52;;
49444;SDS011;35323;43.080;-81.378;2023-08-17T11:15:19;22.45;;;15.95;;
49444;SDS011;35323;43.080;-81.378;2023-08-17T11:17:46;14.57;;;12.15;;
49444;SDS011;35323;43.080;-81.378;2023-08-17T11:20:14;18.52;;;15.82;;
49444;SDS011;35323;43.080;-81.378;2023-08-17T11:22:41;16.80;;;12.30;;
49444;SDS011;35323;43.080;-81.378;2023-08-17T11:25:52;21.00;;;12.93;;
49444;SDS011;35323;43.080;-81.378;2023-08-17T11:28:55;18.42;;;14.55;;
49444;SDS011;35323;43.080;-81.378;2023-08-17T11:31:26;15.50;;;12.90;;
49444;SDS011;35323;43.080;-81.378;2023-08-17T11:33:58;17.95;;;15.32;;
49444;SDS011;35323;43.080;-81.378;2023-08-17T11:36:26;17.10;;;12.43;;
49444;SDS011;35323;43.080;-81.378;2023-08-17T11:38:59;16.23;;;13.30;;
49444;SDS011;35323;43.080;-81.378;2023-08-17T11:41:37;16.75;;;13.18;;
49444;SDS011;35323;43.080;-81.378;2023-08-17T11:44:29;17.77;;;14.32;;
49444;SDS011;35323;43.080;-81.378;2023-08-17T11:46:57;18.45;;;14.13;;
49444;SDS011;35323;43.080;-81.378;2023-08-17T11:49:47;18.50;;;12.25;;
49444;SDS011;35323;43.080;-81.378;2023-08-17T11:52:35;17.95;;;12.98;;
49444;SDS011;35323;43.080;-81.378;2023-08-17T11:55:13;18.50;;;13.50;;
49444;SDS011;35323;43.080;-81.378;2023-08-17T12:00:21;18.27;;;13.25;;
49444;SDS011;35323;43.080;-81.378;2023-08-17T12:02:49;15.40;;;12.98;;
49444;SDS011;35323;43.080;-81.378;2023-08-17T12:05:21;18.42;;;12.80;;
49444;SDS011;35323;43.080;-81.378;2023-08-17T12:10:18;16.63;;;14.27;;
49444;SDS011;35323;43.080;-81.378;2023-08-17T12:12:47;13.50;;;10.52;;
49444;SDS011;35323;43.080;-81.378;2023-08-17T12:15:19;13.15;;;11.73;;
49444;SDS011;35323;43.080;-81.378;2023-08-17T12:18:32;13.20;;;11.15;;
49444;SDS011;35323;43.080;-81.378;2023-08-17T12:21:12;18.35;;;11.43;;
49444;SDS011;35323;43.080;-81.378;2023-08-17T12:24:41;13.27;;;11.40;;
49444;SDS011;35323;43.080;-81.378;2023-08-17T12:27:09;14.48;;;11.38;;
49444;SDS011;35323;43.080;-81.378;2023-08-17T12:29:46;14.60;;;11.93;;
49444;SDS011;35323;43.080;-81.378;2023-08-17T12:32:16;16.83;;;11.77;;
49444;SDS011;35323;43.080;-81.378;2023-08-17T12:34:44;12.95;;;11.45;;
49444;SDS011;35323;43.080;-81.378;2023-08-17T12:37:17;14.43;;;10.82;;
49444;SDS011;35323;43.080;-81.378;2023-08-17T12:39:45;16.98;;;10.88;;
49444;SDS011;35323;43.080;-81.378;2023-08-17T12:42:14;12.85;;;10.85;;
49444;SDS011;35323;43.080;-81.378;2023-08-17T12:44:41;12.95;;;10.68;;
49444;SDS011;35323;43.080;-81.378;2023-08-17T12:47:09;16.65;;;12.57;;
49444;SDS011;35323;43.080;-81.378;2023-08-17T12:49:37;23.67;;;15.35;;
49444;SDS011;35323;43.080;-81.378;2023-08-17T12:52:05;14.88;;;12.45;;
49444;SDS011;35323;43.080;-81.378;2023-08-17T12:54:33;16.70;;;12.45;;
49444;SDS011;35323;43.080;-81.378;2023-08-17T12:57:01;15.13;;;10.70;;
49444;SDS011;35323;43.080;-81.378;2023-08-17T12:59:34;13.70;;;11.57;;
49444;SDS011;35323;43.080;-81.378;2023-08-17T13:02:01;16.27;;;11.07;;
49444;SDS011;35323;43.080;-81.378;2023-08-17T13:04:29;16.08;;;13.13;;
49444;SDS011;35323;43.080;-81.378;2023-08-17T13:06:56;14.57;;;11.40;;
49444;SDS011;35323;43.080;-81.378;2023-08-17T13:09:24;18.92;;;12.95;;
49444;SDS011;35323;43.080;-81.378;2023-08-17T13:11:52;14.90;;;13.23;;
49444;SDS011;35323;43.080;-81.378;2023-08-17T13:14:19;14.75;;;11.77;;
49444;SDS011;35323;43.080;-81.378;2023-08-17T13:16:47;13.60;;;10.98;;
49444;SDS011;35323;43.080;-81.378;2023-08-17T13:19:14;14.52;;;12.10;;
49444;SDS011;35323;43.080;-81.378;2023-08-17T13:21:42;15.20;;;13.13;;
49444;SDS011;35323;43.080;-81.378;2023-08-17T13:24:10;17.75;;;12.85;;
49444;SDS011;35323;43.080;-81.378;2023-08-17T13:26:38;14.48;;;12.40;;
49444;SDS011;35323;43.080;-81.378;2023-08-17T13:29:07;17.73;;;12.30;;
49444;SDS011;35323;43.080;-81.378;2023-08-17T13:31:36;15.10;;;12.57;;
49444;SDS011;35323;43.080;-81.378;2023-08-17T13:34:16;16.02;;;13.27;;
49444;SDS011;35323;43.080;-81.378;2023-08-17T13:37:16;18.65;;;11.55;;
49444;SDS011;35323;43.080;-81.378;2023-08-17T13:39:47;16.77;;;13.20;;
49444;SDS011;35323;43.080;-81.378;2023-08-17T13:42:59;20.30;;;15.52;;
49444;SDS011;35323;43.080;-81.378;2023-08-17T13:45:27;16.30;;;12.15;;
49444;SDS011;35323;43.080;-81.378;2023-08-17T13:47:55;17.98;;;13.82;;
49444;SDS011;35323;43.080;-81.378;2023-08-17T13:50:23;17.23;;;13.90;;
49444;SDS011;35323;43.080;-81.378;2023-08-17T13:53:00;20.10;;;14.10;;
49444;SDS011;35323;43.080;-81.378;2023-08-17T13:55:27;15.50;;;12.80;;
49444;SDS011;35323;43.080;-81.378;2023-08-17T13:57:56;18.58;;;13.57;;
49444;SDS011;35323;43.080;-81.378;2023-08-17T14:00:24;15.75;;;13.27;;
49444;SDS011;35323;43.080;-81.378;2023-08-17T14:03:04;19.13;;;14.63;;
49444;SDS011;35323;43.080;-81.378;2023-08-17T14:06:20;17.67;;;12.98;;
49444;SDS011;35323;43.080;-81.378;2023-08-17T14:08:49;18.15;;;13.63;;
49444;SDS011;35323;43.080;-81.378;2023-08-17T14:11:17;15.63;;;11.55;;
49444;SDS011;35323;43.080;-81.378;2023-08-17T14:13:45;20.38;;;12.75;;
49444;SDS011;35323;43.080;-81.378;2023-08-17T14:16:13;18.75;;;12.18;;
49444;SDS011;35323;43.080;-81.378;2023-08-17T14:18:41;17.38;;;12.55;;
49444;SDS011;35323;43.080;-81.378;2023-08-17T14:21:08;18.48;;;11.95;;
49444;SDS011;35323;43.080;-81.378;2023-08-17T14:23:37;15.43;;;13.02;;
49444;SDS011;35323;43.080;-81.378;2023-08-17T14:26:05;14.98;;;11.32;;
49444;SDS011;35323;43.080;-81.378;2023-08-17T14:28:34;19.65;;;11.65;;
49444;SDS011;35323;43.080;-81.378;2023-08-17T14:31:01;14.18;;;12.32;;
49444;SDS011;35323;43.080;-81.378;2023-08-17T14:33:30;15.95;;;11.48;;
49444;SDS011;35323;43.080;-81.378;2023-08-17T14:35:58;14.32;;;12.68;;
49444;SDS011;35323;43.080;-81.378;2023-08-17T14:38:26;15.65;;;12.70;;
49444;SDS011;35323;43.080;-81.378;2023-08-17T14:40:57;15.15;;;11.05;;
49444;SDS011;35323;43.080;-81.378;2023-08-17T14:43:25;16.42;;;11.35;;
49444;SDS011;35323;43.080;-81.378;2023-08-17T14:45:53;14.82;;;11.65;;
49444;SDS011;35323;43.080;-81.378;2023-08-17T14:48:21;16.50;;;11.68;;
49444;SDS011;35323;43.080;-81.378;2023-08-17T14:50:49;16.88;;;12.20;;
49444;SDS011;35323;43.080;-81.378;2023-08-17T14:53:16;11.90;;;9.00;;
49444;SDS011;35323;43.080;-81.378;2023-08-17T14:55:44;13.82;;;11.45;;
49444;SDS011;35323;43.080;-81.378;2023-08-17T14:58:15;14.70;;;11.45;;
49444;SDS011;35323;43.080;-81.378;2023-08-17T15:00:43;17.00;;;13.82;;
49444;SDS011;35323;43.080;-81.378;2023-08-17T15:03:11;11.48;;;10.25;;
49444;SDS011;35323;43.080;-81.378;2023-08-17T15:05:38;15.20;;;12.43;;
49444;SDS011;35323;43.080;-81.378;2023-08-17T15:08:06;15.60;;;11.25;;